KBAB

Beale AFB Airport

Marysville, California, USA
METAR KBAB 220558Z AUTO 09009KT 10SM CLR 17/11 A2999 RMK AO2 SLP158 T01650108 10267 20164 50007 $
Observed Flight Rules
Apr-22 @ 05:58 UTC (53 minutes ago) Visual Flight Rules
Wind Visibility Clouds
90° at 9 knots 10 miles
  • Clear skies
Temperatures Readings
Current 17°C / 63°F
Dewpoint 11°C / 52°F
Humidity 68%
Altimeter 29.99" Hg
Pressure 1015.8 hPa
Elevation 34
METAR KBAB 220558Z AUTO 09009KT 10SM CLR 17/11 A2999 RMK AO2 SLP158 T01650108 10267 20164 50007 $
Observed Flight Rules
Apr-22 @ 05:58 UTC
(53 minutes ago)
VFR
Wind Visibility
90° at 9 knots 10 miles
Clouds
  • Clear skies
Temperature Dewpoint
17°C / 63°F 11°C / 52°F
Humidity Altimeter Pressure
68% 29.99" Hg 1015.8 hPa